sensor_id;sensor_type;location;lat;lon;timestamp;pressure;altitude;pressure_sealevel;temperature;humidity
77086;BME280;66014;53.134;18.006;2023-02-03T00:01:44;101635.95;;;-0.65;77.98
77086;BME280;66014;53.134;18.006;2023-02-03T00:04:10;101637.20;;;-0.66;78.19
77086;BME280;66014;53.134;18.006;2023-02-03T00:06:37;101636.02;;;-0.67;78.09
77086;BME280;66014;53.134;18.006;2023-02-03T00:09:03;101635.23;;;-0.68;78.01
77086;BME280;66014;53.134;18.006;2023-02-03T00:11:31;101634.00;;;-0.68;78.23
77086;BME280;66014;53.134;18.006;2023-02-03T00:13:58;101630.35;;;-0.68;78.18
77086;BME280;66014;53.134;18.006;2023-02-03T00:16:24;101629.36;;;-0.69;78.29
77086;BME280;66014;53.134;18.006;2023-02-03T00:18:50;101630.83;;;-0.70;78.05
77086;BME280;66014;53.134;18.006;2023-02-03T00:21:17;101628.52;;;-0.70;78.24
77086;BME280;66014;53.134;18.006;2023-02-03T00:23:43;101624.69;;;-0.70;78.20
77086;BME280;66014;53.134;18.006;2023-02-03T00:26:13;101624.93;;;-0.71;78.08
77086;BME280;66014;53.134;18.006;2023-02-03T00:28:41;101620.71;;;-0.70;78.17
77086;BME280;66014;53.134;18.006;2023-02-03T00:31:16;101619.75;;;-0.71;78.28
77086;BME280;66014;53.134;18.006;2023-02-03T00:33:42;101620.15;;;-0.73;78.49
77086;BME280;66014;53.134;18.006;2023-02-03T00:36:09;101621.30;;;-0.74;78.50
77086;BME280;66014;53.134;18.006;2023-02-03T00:38:36;101616.15;;;-0.76;78.66
77086;BME280;66014;53.134;18.006;2023-02-03T00:41:03;101613.78;;;-0.77;78.47
77086;BME280;66014;53.134;18.006;2023-02-03T00:43:30;101611.69;;;-0.77;78.53
77086;BME280;66014;53.134;18.006;2023-02-03T00:45:56;101606.84;;;-0.78;78.66
77086;BME280;66014;53.134;18.006;2023-02-03T00:48:23;101602.29;;;-0.80;78.84
77086;BME280;66014;53.134;18.006;2023-02-03T00:50:49;101602.29;;;-0.84;79.01
77086;BME280;66014;53.134;18.006;2023-02-03T00:53:16;101599.58;;;-0.85;78.88
77086;BME280;66014;53.134;18.006;2023-02-03T00:55:42;101596.66;;;-0.86;78.88
77086;BME280;66014;53.134;18.006;2023-02-03T00:58:09;101597.73;;;-0.87;78.92
77086;BME280;66014;53.134;18.006;2023-02-03T01:00:36;101590.05;;;-0.89;78.87
77086;BME280;66014;53.134;18.006;2023-02-03T01:03:03;101592.63;;;-0.92;78.82
77086;BME280;66014;53.134;18.006;2023-02-03T01:05:32;101599.25;;;-0.95;78.93
77086;BME280;66014;53.134;18.006;2023-02-03T01:08:00;101596.30;;;-0.99;78.82
77086;BME280;66014;53.134;18.006;2023-02-03T01:10:27;101593.08;;;-1.00;78.85
77086;BME280;66014;53.134;18.006;2023-02-03T01:12:54;101596.29;;;-1.02;78.99
77086;BME280;66014;53.134;18.006;2023-02-03T01:15:23;101590.02;;;-1.01;79.07
77086;BME280;66014;53.134;18.006;2023-02-03T01:17:51;101585.06;;;-1.00;79.20
77086;BME280;66014;53.134;18.006;2023-02-03T01:20:31;101587.92;;;-0.98;79.20
77086;BME280;66014;53.134;18.006;2023-02-03T01:22:58;101582.98;;;-0.97;79.07
77086;BME280;66014;53.134;18.006;2023-02-03T01:25:28;101571.21;;;-0.96;78.97
77086;BME280;66014;53.134;18.006;2023-02-03T01:27:59;101557.69;;;-0.93;78.96
77086;BME280;66014;53.134;18.006;2023-02-03T01:30:26;101550.86;;;-0.93;79.07
77086;BME280;66014;53.134;18.006;2023-02-03T01:32:55;101539.11;;;-0.91;78.91
77086;BME280;66014;53.134;18.006;2023-02-03T01:35:33;101530.73;;;-0.88;78.70
77086;BME280;66014;53.134;18.006;2023-02-03T01:38:03;101526.27;;;-0.86;78.72
77086;BME280;66014;53.134;18.006;2023-02-03T01:40:31;101519.51;;;-0.86;78.93
77086;BME280;66014;53.134;18.006;2023-02-03T01:43:03;101519.30;;;-0.89;78.83
77086;BME280;66014;53.134;18.006;2023-02-03T01:45:36;101510.80;;;-0.93;79.02
77086;BME280;66014;53.134;18.006;2023-02-03T01:48:09;101508.42;;;-0.94;79.04
77086;BME280;66014;53.134;18.006;2023-02-03T01:50:42;101517.21;;;-0.92;78.99
77086;BME280;66014;53.134;18.006;2023-02-03T01:53:14;101517.77;;;-0.90;79.02
77086;BME280;66014;53.134;18.006;2023-02-03T01:55:44;101522.02;;;-0.88;78.74
77086;BME280;66014;53.134;18.006;2023-02-03T01:58:21;101521.77;;;-0.86;78.68
77086;BME280;66014;53.134;18.006;2023-02-03T02:00:52;101518.94;;;-0.85;78.85
77086;BME280;66014;53.134;18.006;2023-02-03T02:03:35;101513.89;;;-0.86;78.98
77086;BME280;66014;53.134;18.006;2023-02-03T02:06:06;101511.70;;;-0.87;78.87
77086;BME280;66014;53.134;18.006;2023-02-03T02:08:33;101507.77;;;-0.88;79.16
77086;BME280;66014;53.134;18.006;2023-02-03T02:11:02;101499.63;;;-0.89;79.12
77086;BME280;66014;53.134;18.006;2023-02-03T02:13:30;101486.49;;;-0.88;79.00
77086;BME280;66014;53.134;18.006;2023-02-03T02:16:24;101472.33;;;-0.87;78.90
77086;BME280;66014;53.134;18.006;2023-02-03T02:29:47;101439.95;;;-0.90;79.09
77086;BME280;66014;53.134;18.006;2023-02-03T02:35:05;101424.52;;;-0.89;79.01
77086;BME280;66014;53.134;18.006;2023-02-03T02:40:54;101422.00;;;-0.90;79.25
77086;BME280;66014;53.134;18.006;2023-02-03T02:43:59;101418.85;;;-0.93;79.18
77086;BME280;66014;53.134;18.006;2023-02-03T02:49:31;101411.58;;;-0.97;79.23
77086;BME280;66014;53.134;18.006;2023-02-03T02:52:25;101409.56;;;-0.98;79.43
77086;BME280;66014;53.134;18.006;2023-02-03T02:54:57;101401.56;;;-0.98;79.39
77086;BME280;66014;53.134;18.006;2023-02-03T02:57:27;101398.29;;;-0.96;79.38
77086;BME280;66014;53.134;18.006;2023-02-03T02:59:56;101395.02;;;-0.94;79.29
77086;BME280;66014;53.134;18.006;2023-02-03T03:02:31;101395.16;;;-0.93;79.34
77086;BME280;66014;53.134;18.006;2023-02-03T03:04:58;101396.50;;;-0.95;79.58
77086;BME280;66014;53.134;18.006;2023-02-03T03:07:27;101402.02;;;-0.97;79.52
77086;BME280;66014;53.134;18.006;2023-02-03T03:09:56;101406.52;;;-0.97;79.59
77086;BME280;66014;53.134;18.006;2023-02-03T03:12:35;101410.23;;;-0.95;79.50
77086;BME280;66014;53.134;18.006;2023-02-03T03:15:16;101405.67;;;-0.94;79.54
77086;BME280;66014;53.134;18.006;2023-02-03T03:17:52;101402.60;;;-0.92;79.37
77086;BME280;66014;53.134;18.006;2023-02-03T03:20:24;101396.82;;;-0.92;79.48
77086;BME280;66014;53.134;18.006;2023-02-03T03:23:01;101391.35;;;-0.94;79.41
77086;BME280;66014;53.134;18.006;2023-02-03T03:25:35;101385.09;;;-0.94;79.44
77086;BME280;66014;53.134;18.006;2023-02-03T03:28:16;101383.27;;;-0.92;79.61
77086;BME280;66014;53.134;18.006;2023-02-03T03:30:53;101384.18;;;-0.93;79.50
77086;BME280;66014;53.134;18.006;2023-02-03T03:33:23;101382.14;;;-0.94;79.46
77086;BME280;66014;53.134;18.006;2023-02-03T03:36:11;101374.81;;;-0.94;79.54
77086;BME280;66014;53.134;18.006;2023-02-03T03:38:59;101365.86;;;-0.93;79.51
77086;BME280;66014;53.134;18.006;2023-02-03T03:41:55;101358.22;;;-0.90;79.57
77086;BME280;66014;53.134;18.006;2023-02-03T03:44:29;101352.50;;;-0.87;79.55
77086;BME280;66014;53.134;18.006;2023-02-03T03:47:23;101350.44;;;-0.85;79.38
77086;BME280;66014;53.134;18.006;2023-02-03T03:49:53;101340.92;;;-0.83;79.39
77086;BME280;66014;53.134;18.006;2023-02-03T03:52:25;101333.78;;;-0.83;79.37
77086;BME280;66014;53.134;18.006;2023-02-03T03:54:55;101332.64;;;-0.84;79.30
77086;BME280;66014;53.134;18.006;2023-02-03T03:57:27;101328.73;;;-0.86;79.19
77086;BME280;66014;53.134;18.006;2023-02-03T04:00:02;101324.94;;;-0.84;79.39
77086;BME280;66014;53.134;18.006;2023-02-03T04:02:30;101324.33;;;-0.79;79.31
77086;BME280;66014;53.134;18.006;2023-02-03T04:05:00;101320.98;;;-0.76;79.28
77086;BME280;66014;53.134;18.006;2023-02-03T04:07:40;101319.54;;;-0.72;79.10
77086;BME280;66014;53.134;18.006;2023-02-03T04:12:40;101303.05;;;-0.68;79.06
77086;BME280;66014;53.134;18.006;2023-02-03T04:15:07;101297.13;;;-0.68;79.08
77086;BME280;66014;53.134;18.006;2023-02-03T04:17:33;101292.05;;;-0.67;79.02
77086;BME280;66014;53.134;18.006;2023-02-03T04:20:04;101292.27;;;-0.65;79.03
77086;BME280;66014;53.134;18.006;2023-02-03T04:22:30;101286.81;;;-0.61;79.02
77086;BME280;66014;53.134;18.006;2023-02-03T04:24:57;101286.33;;;-0.59;78.97
77086;BME280;66014;53.134;18.006;2023-02-03T04:27:26;101281.37;;;-0.60;78.93
77086;BME280;66014;53.134;18.006;2023-02-03T04:29:52;101279.60;;;-0.63;78.74
77086;BME280;66014;53.134;18.006;2023-02-03T04:32:19;101269.61;;;-0.65;79.08
77086;BME280;66014;53.134;18.006;2023-02-03T04:34:46;101271.85;;;-0.64;79.08
77086;BME280;66014;53.134;18.006;2023-02-03T04:37:16;101266.40;;;-0.64;79.04
77086;BME280;66014;53.134;18.006;2023-02-03T04:39:42;101267.59;;;-0.63;79.20
77086;BME280;66014;53.134;18.006;2023-02-03T04:42:09;101264.95;;;-0.63;78.93
77086;BME280;66014;53.134;18.006;2023-02-03T04:44:36;101261.63;;;-0.63;79.13
77086;BME280;66014;53.134;18.006;2023-02-03T04:47:03;101254.15;;;-0.63;78.97
77086;BME280;66014;53.134;18.006;2023-02-03T04:49:30;101255.27;;;-0.61;79.19
77086;BME280;66014;53.134;18.006;2023-02-03T04:51:57;101255.58;;;-0.61;78.91
77086;BME280;66014;53.134;18.006;2023-02-03T04:54:28;101252.40;;;-0.60;79.15
77086;BME280;66014;53.134;18.006;2023-02-03T04:56:55;101247.55;;;-0.60;79.06
77086;BME280;66014;53.134;18.006;2023-02-03T04:59:24;101248.20;;;-0.60;79.05
77086;BME280;66014;53.134;18.006;2023-02-03T05:01:51;101243.65;;;-0.57;79.09
77086;BME280;66014;53.134;18.006;2023-02-03T05:04:20;101242.90;;;-0.56;79.02
77086;BME280;66014;53.134;18.006;2023-02-03T05:06:49;101237.07;;;-0.57;79.23
77086;BME280;66014;53.134;18.006;2023-02-03T05:09:16;101225.70;;;-0.60;79.03
77086;BME280;66014;53.134;18.006;2023-02-03T05:11:43;101217.69;;;-0.60;79.12
77086;BME280;66014;53.134;18.006;2023-02-03T05:14:09;101211.45;;;-0.60;79.10
77086;BME280;66014;53.134;18.006;2023-02-03T05:16:37;101210.34;;;-0.59;79.25
77086;BME280;66014;53.134;18.006;2023-02-03T05:19:03;101203.91;;;-0.56;79.11
77086;BME280;66014;53.134;18.006;2023-02-03T05:21:30;101198.41;;;-0.55;79.13
77086;BME280;66014;53.134;18.006;2023-02-03T05:23:56;101186.39;;;-0.55;79.29
77086;BME280;66014;53.134;18.006;2023-02-03T05:26:23;101177.28;;;-0.54;79.25
77086;BME280;66014;53.134;18.006;2023-02-03T05:28:52;101167.58;;;-0.52;79.08
77086;BME280;66014;53.134;18.006;2023-02-03T05:31:19;101156.95;;;-0.52;79.07
77086;BME280;66014;53.134;18.006;2023-02-03T05:33:46;101151.15;;;-0.52;79.11
77086;BME280;66014;53.134;18.006;2023-02-03T05:36:12;101151.39;;;-0.50;79.11
77086;BME280;66014;53.134;18.006;2023-02-03T05:38:39;101144.55;;;-0.49;79.12
77086;BME280;66014;53.134;18.006;2023-02-03T05:41:11;101140.65;;;-0.48;79.04
77086;BME280;66014;53.134;18.006;2023-02-03T05:43:58;101132.14;;;-0.49;78.91
77086;BME280;66014;53.134;18.006;2023-02-03T05:46:29;101121.66;;;-0.49;78.90
77086;BME280;66014;53.134;18.006;2023-02-03T05:48:56;101119.63;;;-0.47;79.07
77086;BME280;66014;53.134;18.006;2023-02-03T05:51:26;101111.83;;;-0.45;78.81
77086;BME280;66014;53.134;18.006;2023-02-03T05:53:53;101106.73;;;-0.41;78.75
77086;BME280;66014;53.134;18.006;2023-02-03T05:56:20;101099.27;;;-0.39;78.85
77086;BME280;66014;53.134;18.006;2023-02-03T05:58:47;101098.30;;;-0.38;78.75
77086;BME280;66014;53.134;18.006;2023-02-03T06:01:14;101084.69;;;-0.38;78.71
77086;BME280;66014;53.134;18.006;2023-02-03T06:03:41;101076.80;;;-0.37;78.84
77086;BME280;66014;53.134;18.006;2023-02-03T06:06:12;101075.45;;;-0.37;78.78
77086;BME280;66014;53.134;18.006;2023-02-03T06:08:39;101073.98;;;-0.36;78.87
77086;BME280;66014;53.134;18.006;2023-02-03T06:11:05;101077.20;;;-0.32;78.75
77086;BME280;66014;53.134;18.006;2023-02-03T06:13:32;101066.02;;;-0.29;78.72
77086;BME280;66014;53.134;18.006;2023-02-03T06:16:03;101059.02;;;-0.29;78.76
77086;BME280;66014;53.134;18.006;2023-02-03T06:18:30;101054.71;;;-0.27;78.77
77086;BME280;66014;53.134;18.006;2023-02-03T06:20:57;101046.48;;;-0.26;78.82
77086;BME280;66014;53.134;18.006;2023-02-03T06:23:23;101045.27;;;-0.24;78.59
77086;BME280;66014;53.134;18.006;2023-02-03T06:25:58;101043.36;;;-0.19;78.54
77086;BME280;66014;53.134;18.006;2023-02-03T06:28:36;101041.70;;;-0.15;78.54
77086;BME280;66014;53.134;18.006;2023-02-03T06:31:07;101037.20;;;-0.13;78.43
77086;BME280;66014;53.134;18.006;2023-02-03T06:33:33;101034.24;;;-0.13;78.46
77086;BME280;66014;53.134;18.006;2023-02-03T06:36:02;101032.02;;;-0.13;78.55
77086;BME280;66014;53.134;18.006;2023-02-03T06:38:31;101014.20;;;-0.13;78.56
77086;BME280;66014;53.134;18.006;2023-02-03T06:41:06;101005.98;;;-0.10;78.42
77086;BME280;66014;53.134;18.006;2023-02-03T06:43:33;101007.44;;;-0.06;78.51
77086;BME280;66014;53.134;18.006;2023-02-03T06:46:02;100991.63;;;-0.04;78.44
77086;BME280;66014;53.134;18.006;2023-02-03T06:48:31;100988.67;;;-0.04;78.41
77086;BME280;66014;53.134;18.006;2023-02-03T06:50:58;100978.80;;;-0.03;78.53
77086;BME280;66014;53.134;18.006;2023-02-03T06:53:36;100975.05;;;-0.02;78.63
77086;BME280;66014;53.134;18.006;2023-02-03T06:56:03;100968.90;;;0.02;78.55
77086;BME280;66014;53.134;18.006;2023-02-03T06:58:34;100967.77;;;0.05;78.38
77086;BME280;66014;53.134;18.006;2023-02-03T07:01:03;100958.77;;;0.09;78.46
77086;BME280;66014;53.134;18.006;2023-02-03T07:03:30;100956.64;;;0.13;78.37
77086;BME280;66014;53.134;18.006;2023-02-03T07:05:56;100949.05;;;0.14;78.16
77086;BME280;66014;53.134;18.006;2023-02-03T07:08:26;100942.89;;;0.15;78.19
77086;BME280;66014;53.134;18.006;2023-02-03T07:10:54;100936.97;;;0.14;78.18
77086;BME280;66014;53.134;18.006;2023-02-03T07:13:21;100933.35;;;0.16;78.06
77086;BME280;66014;53.134;18.006;2023-02-03T07:15:47;100927.71;;;0.17;77.89
77086;BME280;66014;53.134;18.006;2023-02-03T07:18:18;100919.39;;;0.19;77.98
77086;BME280;66014;53.134;18.006;2023-02-03T07:20:50;100911.29;;;0.20;77.91
77086;BME280;66014;53.134;18.006;2023-02-03T07:23:19;100907.23;;;0.21;77.85
77086;BME280;66014;53.134;18.006;2023-02-03T07:25:46;100903.04;;;0.21;77.82
77086;BME280;66014;53.134;18.006;2023-02-03T07:28:12;100898.36;;;0.23;77.97
77086;BME280;66014;53.134;18.006;2023-02-03T07:30:40;100890.16;;;0.25;78.20
77086;BME280;66014;53.134;18.006;2023-02-03T07:33:08;100888.66;;;0.26;78.38
77086;BME280;66014;53.134;18.006;2023-02-03T07:35:35;100879.63;;;0.26;78.52
77086;BME280;66014;53.134;18.006;2023-02-03T07:38:02;100874.61;;;0.25;78.69
77086;BME280;66014;53.134;18.006;2023-02-03T07:40:28;100865.05;;;0.25;78.51
77086;BME280;66014;53.134;18.006;2023-02-03T07:42:57;100861.83;;;0.26;78.69
77086;BME280;66014;53.134;18.006;2023-02-03T07:45:25;100855.84;;;0.26;78.85
77086;BME280;66014;53.134;18.006;2023-02-03T07:47:52;100847.48;;;0.26;78.79
77086;BME280;66014;53.134;18.006;2023-02-03T07:50:22;100843.64;;;0.26;79.22
77086;BME280;66014;53.134;18.006;2023-02-03T07:52:50;100835.06;;;0.24;79.22
77086;BME280;66014;53.134;18.006;2023-02-03T07:55:17;100825.42;;;0.22;79.70
77086;BME280;66014;53.134;18.006;2023-02-03T07:57:44;100816.25;;;0.24;80.05
77086;BME280;66014;53.134;18.006;2023-02-03T08:00:12;100812.16;;;0.25;80.05
77086;BME280;66014;53.134;18.006;2023-02-03T08:02:42;100811.96;;;0.25;80.24
77086;BME280;66014;53.134;18.006;2023-02-03T08:05:10;100800.31;;;0.24;80.44
77086;BME280;66014;53.134;18.006;2023-02-03T08:07:37;100793.42;;;0.23;80.68
77086;BME280;66014;53.134;18.006;2023-02-03T08:12:33;100781.67;;;0.29;80.72
77086;BME280;66014;53.134;18.006;2023-02-03T08:15:00;100770.86;;;0.34;80.54
77086;BME280;66014;53.134;18.006;2023-02-03T08:17:30;100757.06;;;0.37;80.92
77086;BME280;66014;53.134;18.006;2023-02-03T08:19:56;100748.77;;;0.37;81.01
77086;BME280;66014;53.134;18.006;2023-02-03T08:22:22;100738.86;;;0.37;81.17
77086;BME280;66014;53.134;18.006;2023-02-03T08:24:49;100731.80;;;0.40;81.13
77086;BME280;66014;53.134;18.006;2023-02-03T08:27:19;100725.10;;;0.44;81.12
77086;BME280;66014;53.134;18.006;2023-02-03T08:29:47;100713.52;;;0.47;81.04
77086;BME280;66014;53.134;18.006;2023-02-03T08:32:19;100706.19;;;0.49;81.26
77086;BME280;66014;53.134;18.006;2023-02-03T08:34:53;100700.24;;;0.49;81.08
77086;BME280;66014;53.134;18.006;2023-02-03T08:37:21;100694.09;;;0.50;81.19
77086;BME280;66014;53.134;18.006;2023-02-03T08:39:50;100683.02;;;0.53;81.38
77086;BME280;66014;53.134;18.006;2023-02-03T08:42:18;100678.39;;;0.54;81.55
77086;BME280;66014;53.134;18.006;2023-02-03T08:44:45;100668.27;;;0.54;81.69
77086;BME280;66014;53.134;18.006;2023-02-03T08:47:14;100660.20;;;0.55;81.60
77086;BME280;66014;53.134;18.006;2023-02-03T08:49:41;100650.23;;;0.57;81.70
77086;BME280;66014;53.134;18.006;2023-02-03T08:52:10;100644.45;;;0.62;81.58
77086;BME280;66014;53.134;18.006;2023-02-03T08:54:38;100639.23;;;0.64;81.65
77086;BME280;66014;53.134;18.006;2023-02-03T08:57:07;100626.11;;;0.65;81.88
77086;BME280;66014;53.134;18.006;2023-02-03T08:59:36;100619.43;;;0.63;81.86
77086;BME280;66014;53.134;18.006;2023-02-03T09:02:05;100614.70;;;0.63;82.41
77086;BME280;66014;53.134;18.006;2023-02-03T09:04:33;100602.01;;;0.64;82.21
77086;BME280;66014;53.134;18.006;2023-02-03T09:07:00;100597.02;;;0.68;82.10
77086;BME280;66014;53.134;18.006;2023-02-03T09:09:27;100587.08;;;0.71;82.18
77086;BME280;66014;53.134;18.006;2023-02-03T09:11:54;100576.77;;;0.71;82.10
77086;BME280;66014;53.134;18.006;2023-02-03T09:14:31;100565.84;;;0.69;82.29
77086;BME280;66014;53.134;18.006;2023-02-03T09:16:59;100551.69;;;0.70;82.16
77086;BME280;66014;53.134;18.006;2023-02-03T09:19:26;100545.27;;;0.73;82.04
77086;BME280;66014;53.134;18.006;2023-02-03T09:21:53;100546.76;;;0.74;82.37
77086;BME280;66014;53.134;18.006;2023-02-03T09:24:22;100536.73;;;0.71;82.27
77086;BME280;66014;53.134;18.006;2023-02-03T09:26:49;100518.95;;;0.68;82.60
77086;BME280;66014;53.134;18.006;2023-02-03T09:29:18;100519.56;;;0.65;82.76
77086;BME280;66014;53.134;18.006;2023-02-03T09:31:45;100508.96;;;0.64;82.86
77086;BME280;66014;53.134;18.006;2023-02-03T09:34:13;100502.90;;;0.66;82.88
77086;BME280;66014;53.134;18.006;2023-02-03T09:36:40;100494.13;;;0.64;83.07
77086;BME280;66014;53.134;18.006;2023-02-03T09:39:07;100488.27;;;0.63;83.03
77086;BME280;66014;53.134;18.006;2023-02-03T09:41:49;100481.14;;;0.63;82.86
77086;BME280;66014;53.134;18.006;2023-02-03T09:44:54;100467.23;;;0.62;82.98
77086;BME280;66014;53.134;18.006;2023-02-03T09:47:28;100459.33;;;0.63;83.06
77086;BME280;66014;53.134;18.006;2023-02-03T09:49:58;100452.19;;;0.63;83.28
77086;BME280;66014;53.134;18.006;2023-02-03T09:52:29;100441.11;;;0.62;83.44
77086;BME280;66014;53.134;18.006;2023-02-03T09:57:30;100427.19;;;0.57;83.60
77086;BME280;66014;53.134;18.006;2023-02-03T10:00:02;100415.92;;;0.55;83.38
77086;BME280;66014;53.134;18.006;2023-02-03T10:10:40;100369.95;;;0.52;84.10
77086;BME280;66014;53.134;18.006;2023-02-03T10:13:29;100356.33;;;0.50;84.28
77086;BME280;66014;53.134;18.006;2023-02-03T10:18:48;100333.36;;;0.47;84.43
77086;BME280;66014;53.134;18.006;2023-02-03T10:21:30;100328.17;;;0.46;84.43
77086;BME280;66014;53.134;18.006;2023-02-03T10:23:59;100311.05;;;0.44;84.48
77086;BME280;66014;53.134;18.006;2023-02-03T10:26:27;100297.84;;;0.45;84.55
77086;BME280;66014;53.134;18.006;2023-02-03T10:29:16;100285.42;;;0.46;84.61
77086;BME280;66014;53.134;18.006;2023-02-03T10:31:43;100277.52;;;0.47;84.78
77086;BME280;66014;53.134;18.006;2023-02-03T10:34:14;100267.52;;;0.47;84.87
77086;BME280;66014;53.134;18.006;2023-02-03T10:36:57;100254.33;;;0.48;85.25
77086;BME280;66014;53.134;18.006;2023-02-03T10:39:34;100240.92;;;0.50;84.98
77086;BME280;66014;53.134;18.006;2023-02-03T10:42:03;100238.03;;;0.53;84.66
77086;BME280;66014;53.134;18.006;2023-02-03T10:44:40;100228.32;;;0.55;84.79
77086;BME280;66014;53.134;18.006;2023-02-03T10:49:54;100211.10;;;0.54;85.07
77086;BME280;66014;53.134;18.006;2023-02-03T10:52:33;100203.35;;;0.54;85.35
77086;BME280;66014;53.134;18.006;2023-02-03T10:55:27;100196.73;;;0.57;85.21
77086;BME280;66014;53.134;18.006;2023-02-03T10:57:57;100188.46;;;0.58;85.04
77086;BME280;66014;53.134;18.006;2023-02-03T11:00:33;100176.42;;;0.58;85.03
77086;BME280;66014;53.134;18.006;2023-02-03T11:03:07;100162.98;;;0.57;85.11
77086;BME280;66014;53.134;18.006;2023-02-03T11:05:41;100147.38;;;0.56;85.36
77086;BME280;66014;53.134;18.006;2023-02-03T11:08:17;100141.30;;;0.55;85.38
77086;BME280;66014;53.134;18.006;2023-02-03T11:11:14;100127.48;;;0.56;85.34
77086;BME280;66014;53.134;18.006;2023-02-03T11:16:36;100102.04;;;0.58;85.57
77086;BME280;66014;53.134;18.006;2023-02-03T11:19:14;100086.74;;;0.57;85.52
77086;BME280;66014;53.134;18.006;2023-02-03T11:21:49;100080.14;;;0.57;85.60
77086;BME280;66014;53.134;18.006;2023-02-03T11:24:36;100061.56;;;0.58;85.56
77086;BME280;66014;53.134;18.006;2023-02-03T11:27:11;100052.59;;;0.58;85.70
77086;BME280;66014;53.134;18.006;2023-02-03T11:32:47;100033.23;;;0.58;85.82
77086;BME280;66014;53.134;18.006;2023-02-03T11:37:50;100017.03;;;0.55;85.92
77086;BME280;66014;53.134;18.006;2023-02-03T11:45:39;99994.17;;;0.53;85.81
77086;BME280;66014;53.134;18.006;2023-02-03T11:48:28;99987.36;;;0.52;85.94
77086;BME280;66014;53.134;18.006;2023-02-03T11:54:12;99968.97;;;0.50;85.99
77086;BME280;66014;53.134;18.006;2023-02-03T11:57:02;99956.73;;;0.50;86.12
77086;BME280;66014;53.134;18.006;2023-02-03T11:59:49;99941.41;;;0.50;85.76
77086;BME280;66014;53.134;18.006;2023-02-03T12:08:18;99932.38;;;0.52;86.12
77086;BME280;66014;53.134;18.006;2023-02-03T12:17:12;99905.16;;;0.61;85.85
77086;BME280;66014;53.134;18.006;2023-02-03T12:20:04;99902.64;;;0.62;85.65
77086;BME280;66014;53.134;18.006;2023-02-03T12:23:02;99894.61;;;0.62;85.80
77086;BME280;66014;53.134;18.006;2023-02-03T12:25:53;99891.98;;;0.62;85.95
77086;BME280;66014;53.134;18.006;2023-02-03T12:31:12;99871.88;;;0.63;85.68
77086;BME280;66014;53.134;18.006;2023-02-03T12:33:46;99864.95;;;0.62;85.62
77086;BME280;66014;53.134;18.006;2023-02-03T12:36:27;99857.61;;;0.62;85.67
77086;BME280;66014;53.134;18.006;2023-02-03T12:39:02;99855.30;;;0.63;85.62
77086;BME280;66014;53.134;18.006;2023-02-03T12:41:38;99854.01;;;0.63;85.61
77086;BME280;66014;53.134;18.006;2023-02-03T12:45:14;99848.36;;;0.64;85.61
77086;BME280;66014;53.134;18.006;2023-02-03T12:47:16;99847.40;;;0.65;85.71
77086;BME280;66014;53.134;18.006;2023-02-03T12:49:53;99839.13;;;0.66;85.53
77086;BME280;66014;53.134;18.006;2023-02-03T12:52:25;99833.56;;;0.68;85.52
77086;BME280;66014;53.134;18.006;2023-02-03T12:55:19;99834.80;;;0.67;85.69
77086;BME280;66014;53.134;18.006;2023-02-03T12:57:54;99829.98;;;0.67;85.56
77086;BME280;66014;53.134;18.006;2023-02-03T13:00:34;99826.84;;;0.68;85.56
77086;BME280;66014;53.134;18.006;2023-02-03T13:03:13;99825.80;;;0.68;85.36
77086;BME280;66014;53.134;18.006;2023-02-03T13:09:04;99818.94;;;0.71;85.45
77086;BME280;66014;53.134;18.006;2023-02-03T13:11:42;99813.09;;;0.72;85.46
77086;BME280;66014;53.134;18.006;2023-02-03T13:14:37;99804.98;;;0.73;85.49
77086;BME280;66014;53.134;18.006;2023-02-03T13:17:15;99796.80;;;0.74;85.36
77086;BME280;66014;53.134;18.006;2023-02-03T13:19:47;99793.63;;;0.77;85.57
77086;BME280;66014;53.134;18.006;2023-02-03T13:22:16;99790.94;;;0.77;85.48
77086;BME280;66014;53.134;18.006;2023-02-03T13:24:47;99787.63;;;0.79;85.32
77086;BME280;66014;53.134;18.006;2023-02-03T13:30:31;99785.24;;;0.90;85.28
77086;BME280;66014;53.134;18.006;2023-02-03T13:33:27;99782.32;;;0.97;85.28
77086;BME280;66014;53.134;18.006;2023-02-03T13:36:08;99773.36;;;1.02;85.28
77086;BME280;66014;53.134;18.006;2023-02-03T13:39:00;99770.38;;;1.06;84.84
77086;BME280;66014;53.134;18.006;2023-02-03T13:41:47;99770.20;;;1.09;85.09
77086;BME280;66014;53.134;18.006;2023-02-03T13:44:26;99764.89;;;1.12;85.21
77086;BME280;66014;53.134;18.006;2023-02-03T13:46:56;99762.45;;;1.14;84.92
77086;BME280;66014;53.134;18.006;2023-02-03T13:49:27;99765.48;;;1.15;85.14
77086;BME280;66014;53.134;18.006;2023-02-03T13:51:55;99765.85;;;1.17;85.11
77086;BME280;66014;53.134;18.006;2023-02-03T13:54:42;99762.17;;;1.19;84.92
77086;BME280;66014;53.134;18.006;2023-02-03T13:57:22;99757.93;;;1.21;84.90
77086;BME280;66014;53.134;18.006;2023-02-03T13:59:52;99756.84;;;1.25;84.86
77086;BME280;66014;53.134;18.006;2023-02-03T14:07:38;99760.94;;;1.34;84.92
77086;BME280;66014;53.134;18.006;2023-02-03T14:17:58;99751.09;;;1.35;85.18
77086;BME280;66014;53.134;18.006;2023-02-03T14:25:41;99754.89;;;1.42;85.28
77086;BME280;66014;53.134;18.006;2023-02-03T14:28:17;99755.40;;;1.45;85.61
77086;BME280;66014;53.134;18.006;2023-02-03T14:33:53;99764.77;;;1.45;85.51
77086;BME280;66014;53.134;18.006;2023-02-03T14:38:59;99770.11;;;1.46;85.50
77086;BME280;66014;53.134;18.006;2023-02-03T14:41:42;99769.94;;;1.48;85.66
77086;BME280;66014;53.134;18.006;2023-02-03T14:44:25;99775.82;;;1.49;85.67
77086;BME280;66014;53.134;18.006;2023-02-03T14:53:11;99789.65;;;1.52;85.68
77086;BME280;66014;53.134;18.006;2023-02-03T14:58:28;99792.16;;;1.51;85.80
77086;BME280;66014;53.134;18.006;2023-02-03T15:00:55;99794.61;;;1.51;85.85
77086;BME280;66014;53.134;18.006;2023-02-03T15:03:23;99796.02;;;1.53;85.78
77086;BME280;66014;53.134;18.006;2023-02-03T15:05:53;99798.16;;;1.54;85.86